sensor_id;sensor_type;location;lat;lon;timestamp;P1;durP1;ratioP1;P2;durP2;ratioP2
2029;SDS011;1020;48.854;8.830;2022-10-18T00:01:00;7.03;;;5.60;;
2029;SDS011;1020;48.854;8.830;2022-10-18T00:03:27;5.97;;;5.47;;
2029;SDS011;1020;48.854;8.830;2022-10-18T00:05:54;7.63;;;5.53;;
2029;SDS011;1020;48.854;8.830;2022-10-18T00:08:22;6.03;;;5.33;;
2029;SDS011;1020;48.854;8.830;2022-10-18T00:10:49;6.10;;;5.50;;
2029;SDS011;1020;48.854;8.830;2022-10-18T00:13:16;8.20;;;5.47;;
2029;SDS011;1020;48.854;8.830;2022-10-18T00:15:47;5.10;;;4.70;;
2029;SDS011;1020;48.854;8.830;2022-10-18T00:18:14;6.37;;;5.30;;
2029;SDS011;1020;48.854;8.830;2022-10-18T00:20:41;5.83;;;5.33;;
2029;SDS011;1020;48.854;8.830;2022-10-18T00:23:08;5.47;;;4.97;;
2029;SDS011;1020;48.854;8.830;2022-10-18T00:25:36;9.30;;;6.00;;
2029;SDS011;1020;48.854;8.830;2022-10-18T00:28:03;5.77;;;5.27;;
2029;SDS011;1020;48.854;8.830;2022-10-18T00:30:30;10.40;;;5.77;;
2029;SDS011;1020;48.854;8.830;2022-10-18T00:32:56;7.20;;;5.40;;
2029;SDS011;1020;48.854;8.830;2022-10-18T00:35:23;7.03;;;6.00;;
2029;SDS011;1020;48.854;8.830;2022-10-18T00:37:50;13.03;;;5.97;;
2029;SDS011;1020;48.854;8.830;2022-10-18T00:40:17;5.80;;;5.40;;
2029;SDS011;1020;48.854;8.830;2022-10-18T00:42:45;8.13;;;5.60;;
2029;SDS011;1020;48.854;8.830;2022-10-18T00:45:21;6.60;;;5.93;;
2029;SDS011;1020;48.854;8.830;2022-10-18T00:47:50;6.70;;;5.80;;
2029;SDS011;1020;48.854;8.830;2022-10-18T00:50:20;8.73;;;4.97;;
2029;SDS011;1020;48.854;8.830;2022-10-18T00:52:50;6.47;;;5.87;;
2029;SDS011;1020;48.854;8.830;2022-10-18T00:55:22;7.30;;;6.23;;
2029;SDS011;1020;48.854;8.830;2022-10-18T00:57:51;6.47;;;5.87;;
2029;SDS011;1020;48.854;8.830;2022-10-18T01:00:18;6.23;;;5.63;;
2029;SDS011;1020;48.854;8.830;2022-10-18T01:02:46;5.50;;;4.90;;
2029;SDS011;1020;48.854;8.830;2022-10-18T01:05:14;6.80;;;4.97;;
2029;SDS011;1020;48.854;8.830;2022-10-18T01:07:54;5.70;;;5.20;;
2029;SDS011;1020;48.854;8.830;2022-10-18T01:10:33;6.03;;;5.50;;
2029;SDS011;1020;48.854;8.830;2022-10-18T01:13:13;7.20;;;6.07;;
2029;SDS011;1020;48.854;8.830;2022-10-18T01:15:54;6.67;;;5.40;;
2029;SDS011;1020;48.854;8.830;2022-10-18T01:18:24;6.70;;;5.83;;
2029;SDS011;1020;48.854;8.830;2022-10-18T01:21:06;5.63;;;4.73;;
2029;SDS011;1020;48.854;8.830;2022-10-18T01:23:54;6.63;;;5.53;;
2029;SDS011;1020;48.854;8.830;2022-10-18T01:27:02;7.23;;;5.57;;
2029;SDS011;1020;48.854;8.830;2022-10-18T01:29:48;7.10;;;5.30;;
2029;SDS011;1020;48.854;8.830;2022-10-18T01:32:22;6.03;;;5.50;;
2029;SDS011;1020;48.854;8.830;2022-10-18T01:34:54;5.60;;;5.10;;
2029;SDS011;1020;48.854;8.830;2022-10-18T01:37:29;5.60;;;5.10;;
2029;SDS011;1020;48.854;8.830;2022-10-18T01:39:59;5.30;;;4.90;;
2029;SDS011;1020;48.854;8.830;2022-10-18T01:42:31;6.80;;;4.80;;
2029;SDS011;1020;48.854;8.830;2022-10-18T01:44:59;5.10;;;4.67;;
2029;SDS011;1020;48.854;8.830;2022-10-18T01:47:29;4.20;;;3.77;;
2029;SDS011;1020;48.854;8.830;2022-10-18T01:49:57;6.53;;;4.50;;
2029;SDS011;1020;48.854;8.830;2022-10-18T01:52:24;4.63;;;3.93;;
2029;SDS011;1020;48.854;8.830;2022-10-18T01:54:51;5.07;;;4.37;;
2029;SDS011;1020;48.854;8.830;2022-10-18T01:57:22;4.90;;;4.50;;
2029;SDS011;1020;48.854;8.830;2022-10-18T01:59:56;4.53;;;4.13;;
2029;SDS011;1020;48.854;8.830;2022-10-18T02:02:32;5.07;;;4.50;;
2029;SDS011;1020;48.854;8.830;2022-10-18T02:05:07;6.10;;;4.40;;
2029;SDS011;1020;48.854;8.830;2022-10-18T02:07:41;5.57;;;4.23;;
2029;SDS011;1020;48.854;8.830;2022-10-18T02:10:14;5.10;;;4.40;;
2029;SDS011;1020;48.854;8.830;2022-10-18T02:12:48;4.97;;;4.43;;
2029;SDS011;1020;48.854;8.830;2022-10-18T02:15:18;5.33;;;4.83;;
2029;SDS011;1020;48.854;8.830;2022-10-18T02:17:49;4.13;;;3.73;;
2029;SDS011;1020;48.854;8.830;2022-10-18T02:20:20;4.83;;;3.90;;
2029;SDS011;1020;48.854;8.830;2022-10-18T02:22:49;4.60;;;4.07;;
2029;SDS011;1020;48.854;8.830;2022-10-18T02:25:19;4.63;;;4.13;;
2029;SDS011;1020;48.854;8.830;2022-10-18T02:27:48;4.90;;;4.47;;
2029;SDS011;1020;48.854;8.830;2022-10-18T02:30:15;4.73;;;4.20;;
2029;SDS011;1020;48.854;8.830;2022-10-18T02:32:43;5.30;;;3.50;;
2029;SDS011;1020;48.854;8.830;2022-10-18T02:35:17;5.07;;;4.53;;
2029;SDS011;1020;48.854;8.830;2022-10-18T02:37:47;6.60;;;4.40;;
2029;SDS011;1020;48.854;8.830;2022-10-18T02:40:15;8.33;;;4.23;;
2029;SDS011;1020;48.854;8.830;2022-10-18T02:42:43;4.90;;;4.30;;
2029;SDS011;1020;48.854;8.830;2022-10-18T02:45:12;5.57;;;4.83;;
2029;SDS011;1020;48.854;8.830;2022-10-18T02:47:39;3.83;;;3.37;;
2029;SDS011;1020;48.854;8.830;2022-10-18T02:50:06;9.63;;;4.10;;
2029;SDS011;1020;48.854;8.830;2022-10-18T02:52:35;5.53;;;4.20;;
2029;SDS011;1020;48.854;8.830;2022-10-18T02:55:02;4.37;;;3.77;;
2029;SDS011;1020;48.854;8.830;2022-10-18T02:57:29;4.07;;;3.83;;
2029;SDS011;1020;48.854;8.830;2022-10-18T02:59:56;4.43;;;4.10;;
2029;SDS011;1020;48.854;8.830;2022-10-18T03:02:23;8.03;;;4.00;;
2029;SDS011;1020;48.854;8.830;2022-10-18T03:04:50;10.73;;;4.40;;
2029;SDS011;1020;48.854;8.830;2022-10-18T03:07:17;4.73;;;4.43;;
2029;SDS011;1020;48.854;8.830;2022-10-18T03:09:45;4.10;;;3.80;;
2029;SDS011;1020;48.854;8.830;2022-10-18T03:12:12;4.53;;;3.97;;
2029;SDS011;1020;48.854;8.830;2022-10-18T03:14:39;4.93;;;4.40;;
2029;SDS011;1020;48.854;8.830;2022-10-18T03:17:05;4.37;;;3.83;;
2029;SDS011;1020;48.854;8.830;2022-10-18T03:19:32;6.43;;;4.93;;
2029;SDS011;1020;48.854;8.830;2022-10-18T03:21:59;5.23;;;4.73;;
2029;SDS011;1020;48.854;8.830;2022-10-18T03:24:26;5.10;;;4.30;;
2029;SDS011;1020;48.854;8.830;2022-10-18T03:26:54;5.17;;;4.67;;
2029;SDS011;1020;48.854;8.830;2022-10-18T03:29:21;5.83;;;5.23;;
2029;SDS011;1020;48.854;8.830;2022-10-18T03:31:47;5.47;;;4.97;;
2029;SDS011;1020;48.854;8.830;2022-10-18T03:34:14;4.83;;;4.43;;
2029;SDS011;1020;48.854;8.830;2022-10-18T03:36:42;4.60;;;4.20;;
2029;SDS011;1020;48.854;8.830;2022-10-18T03:39:09;4.87;;;4.50;;
2029;SDS011;1020;48.854;8.830;2022-10-18T03:41:37;6.80;;;4.30;;
2029;SDS011;1020;48.854;8.830;2022-10-18T03:44:05;4.60;;;4.20;;
2029;SDS011;1020;48.854;8.830;2022-10-18T03:46:32;5.27;;;4.70;;
2029;SDS011;1020;48.854;8.830;2022-10-18T03:48:58;4.70;;;4.30;;
2029;SDS011;1020;48.854;8.830;2022-10-18T03:51:25;4.70;;;4.20;;
2029;SDS011;1020;48.854;8.830;2022-10-18T03:53:52;5.50;;;5.00;;
2029;SDS011;1020;48.854;8.830;2022-10-18T03:56:19;5.93;;;4.90;;
2029;SDS011;1020;48.854;8.830;2022-10-18T03:58:46;9.50;;;6.20;;
2029;SDS011;1020;48.854;8.830;2022-10-18T04:01:14;6.40;;;5.80;;
2029;SDS011;1020;48.854;8.830;2022-10-18T04:03:41;7.33;;;6.57;;
2029;SDS011;1020;48.854;8.830;2022-10-18T04:06:07;6.77;;;6.17;;
2029;SDS011;1020;48.854;8.830;2022-10-18T04:08:34;14.87;;;5.60;;
2029;SDS011;1020;48.854;8.830;2022-10-18T04:11:03;8.03;;;5.70;;
2029;SDS011;1020;48.854;8.830;2022-10-18T04:13:33;4.77;;;4.47;;
2029;SDS011;1020;48.854;8.830;2022-10-18T04:16:00;5.53;;;3.83;;
2029;SDS011;1020;48.854;8.830;2022-10-18T04:18:29;4.57;;;3.83;;
2029;SDS011;1020;48.854;8.830;2022-10-18T04:20:55;6.27;;;4.20;;
2029;SDS011;1020;48.854;8.830;2022-10-18T04:23:22;4.53;;;4.13;;
2029;SDS011;1020;48.854;8.830;2022-10-18T04:25:49;4.60;;;3.47;;
2029;SDS011;1020;48.854;8.830;2022-10-18T04:28:16;5.60;;;4.07;;
2029;SDS011;1020;48.854;8.830;2022-10-18T04:30:43;5.73;;;3.90;;
2029;SDS011;1020;48.854;8.830;2022-10-18T04:33:14;4.10;;;3.60;;
2029;SDS011;1020;48.854;8.830;2022-10-18T04:35:43;4.37;;;3.97;;
2029;SDS011;1020;48.854;8.830;2022-10-18T04:38:09;5.20;;;4.10;;
2029;SDS011;1020;48.854;8.830;2022-10-18T04:40:38;4.27;;;3.73;;
2029;SDS011;1020;48.854;8.830;2022-10-18T04:43:05;7.63;;;4.07;;
2029;SDS011;1020;48.854;8.830;2022-10-18T04:45:31;4.23;;;3.90;;
2029;SDS011;1020;48.854;8.830;2022-10-18T04:47:58;4.70;;;4.30;;
2029;SDS011;1020;48.854;8.830;2022-10-18T04:50:25;6.30;;;3.90;;
2029;SDS011;1020;48.854;8.830;2022-10-18T04:52:53;3.80;;;3.50;;
2029;SDS011;1020;48.854;8.830;2022-10-18T04:55:20;4.33;;;3.43;;
2029;SDS011;1020;48.854;8.830;2022-10-18T04:57:47;3.90;;;3.57;;
2029;SDS011;1020;48.854;8.830;2022-10-18T05:00:14;5.67;;;4.20;;
2029;SDS011;1020;48.854;8.830;2022-10-18T05:02:41;4.43;;;3.80;;
2029;SDS011;1020;48.854;8.830;2022-10-18T05:05:08;4.73;;;3.87;;
2029;SDS011;1020;48.854;8.830;2022-10-18T05:07:34;3.83;;;3.53;;
2029;SDS011;1020;48.854;8.830;2022-10-18T05:10:03;5.33;;;3.93;;
2029;SDS011;1020;48.854;8.830;2022-10-18T05:12:30;4.73;;;4.00;;
2029;SDS011;1020;48.854;8.830;2022-10-18T05:14:57;4.90;;;4.47;;
2029;SDS011;1020;48.854;8.830;2022-10-18T05:17:24;4.43;;;4.13;;
2029;SDS011;1020;48.854;8.830;2022-10-18T05:19:50;6.50;;;3.90;;
2029;SDS011;1020;48.854;8.830;2022-10-18T05:22:17;4.20;;;3.80;;
2029;SDS011;1020;48.854;8.830;2022-10-18T05:24:44;4.03;;;3.67;;
2029;SDS011;1020;48.854;8.830;2022-10-18T05:27:12;4.17;;;3.60;;
2029;SDS011;1020;48.854;8.830;2022-10-18T05:29:39;4.73;;;4.43;;
2029;SDS011;1020;48.854;8.830;2022-10-18T05:32:05;4.23;;;3.60;;
2029;SDS011;1020;48.854;8.830;2022-10-18T05:34:32;5.17;;;4.23;;
2029;SDS011;1020;48.854;8.830;2022-10-18T05:36:59;4.73;;;3.73;;
2029;SDS011;1020;48.854;8.830;2022-10-18T05:39:26;3.53;;;3.33;;
2029;SDS011;1020;48.854;8.830;2022-10-18T05:41:53;4.30;;;3.90;;
2029;SDS011;1020;48.854;8.830;2022-10-18T05:44:21;7.37;;;3.77;;
2029;SDS011;1020;48.854;8.830;2022-10-18T05:46:48;4.70;;;4.30;;
2029;SDS011;1020;48.854;8.830;2022-10-18T05:49:14;4.77;;;4.37;;
2029;SDS011;1020;48.854;8.830;2022-10-18T05:51:41;4.43;;;4.03;;
2029;SDS011;1020;48.854;8.830;2022-10-18T05:54:09;6.07;;;4.10;;
2029;SDS011;1020;48.854;8.830;2022-10-18T05:56:36;6.10;;;3.70;;
2029;SDS011;1020;48.854;8.830;2022-10-18T05:59:03;4.37;;;3.97;;
2029;SDS011;1020;48.854;8.830;2022-10-18T06:01:35;5.03;;;4.57;;
2029;SDS011;1020;48.854;8.830;2022-10-18T06:04:02;6.77;;;4.47;;
2029;SDS011;1020;48.854;8.830;2022-10-18T06:06:29;5.50;;;4.90;;
2029;SDS011;1020;48.854;8.830;2022-10-18T06:08:57;9.47;;;4.50;;
2029;SDS011;1020;48.854;8.830;2022-10-18T06:11:24;6.53;;;4.30;;
2029;SDS011;1020;48.854;8.830;2022-10-18T06:13:51;4.60;;;4.20;;
2029;SDS011;1020;48.854;8.830;2022-10-18T06:16:18;5.93;;;3.90;;
2029;SDS011;1020;48.854;8.830;2022-10-18T06:18:47;6.77;;;4.00;;
2029;SDS011;1020;48.854;8.830;2022-10-18T06:21:15;4.37;;;3.97;;
2029;SDS011;1020;48.854;8.830;2022-10-18T06:23:43;7.50;;;4.20;;
2029;SDS011;1020;48.854;8.830;2022-10-18T06:26:13;7.53;;;4.03;;
2029;SDS011;1020;48.854;8.830;2022-10-18T06:28:40;4.70;;;4.20;;
2029;SDS011;1020;48.854;8.830;2022-10-18T06:31:09;5.87;;;4.60;;
2029;SDS011;1020;48.854;8.830;2022-10-18T06:33:36;4.60;;;3.50;;
2029;SDS011;1020;48.854;8.830;2022-10-18T06:36:05;4.57;;;4.17;;
2029;SDS011;1020;48.854;8.830;2022-10-18T06:38:33;7.30;;;4.90;;
2029;SDS011;1020;48.854;8.830;2022-10-18T06:41:00;6.77;;;4.67;;
2029;SDS011;1020;48.854;8.830;2022-10-18T06:43:27;5.00;;;4.33;;
2029;SDS011;1020;48.854;8.830;2022-10-18T06:45:54;7.70;;;4.03;;
2029;SDS011;1020;48.854;8.830;2022-10-18T06:48:22;6.50;;;4.30;;
2029;SDS011;1020;48.854;8.830;2022-10-18T06:50:49;5.87;;;3.97;;
2029;SDS011;1020;48.854;8.830;2022-10-18T06:53:18;6.00;;;4.40;;
2029;SDS011;1020;48.854;8.830;2022-10-18T06:55:45;6.53;;;4.20;;
2029;SDS011;1020;48.854;8.830;2022-10-18T06:58:12;4.30;;;3.90;;
2029;SDS011;1020;48.854;8.830;2022-10-18T07:00:39;4.80;;;3.50;;
2029;SDS011;1020;48.854;8.830;2022-10-18T07:03:06;3.53;;;3.23;;
2029;SDS011;1020;48.854;8.830;2022-10-18T07:05:33;7.07;;;3.90;;
2029;SDS011;1020;48.854;8.830;2022-10-18T07:07:59;4.17;;;3.87;;
2029;SDS011;1020;48.854;8.830;2022-10-18T07:10:27;4.77;;;4.43;;
2029;SDS011;1020;48.854;8.830;2022-10-18T07:12:54;5.23;;;3.73;;
2029;SDS011;1020;48.854;8.830;2022-10-18T07:15:21;5.43;;;4.33;;
2029;SDS011;1020;48.854;8.830;2022-10-18T07:17:48;5.53;;;5.13;;
2029;SDS011;1020;48.854;8.830;2022-10-18T07:20:15;4.50;;;4.10;;
2029;SDS011;1020;48.854;8.830;2022-10-18T07:22:42;5.20;;;4.80;;
2029;SDS011;1020;48.854;8.830;2022-10-18T07:25:09;4.10;;;3.80;;
2029;SDS011;1020;48.854;8.830;2022-10-18T07:27:37;4.37;;;3.97;;
2029;SDS011;1020;48.854;8.830;2022-10-18T07:30:05;4.13;;;3.73;;
2029;SDS011;1020;48.854;8.830;2022-10-18T07:32:34;4.77;;;3.70;;
2029;SDS011;1020;48.854;8.830;2022-10-18T07:35:01;4.70;;;3.40;;
2029;SDS011;1020;48.854;8.830;2022-10-18T07:37:28;3.97;;;3.70;;
2029;SDS011;1020;48.854;8.830;2022-10-18T07:39:55;3.90;;;3.60;;
2029;SDS011;1020;48.854;8.830;2022-10-18T07:42:21;4.73;;;3.57;;
2029;SDS011;1020;48.854;8.830;2022-10-18T07:44:50;3.97;;;3.67;;
2029;SDS011;1020;48.854;8.830;2022-10-18T07:47:17;4.20;;;3.80;;
2029;SDS011;1020;48.854;8.830;2022-10-18T07:49:44;7.70;;;3.63;;
2029;SDS011;1020;48.854;8.830;2022-10-18T07:52:11;4.33;;;3.93;;
2029;SDS011;1020;48.854;8.830;2022-10-18T07:54:37;3.23;;;3.03;;
2029;SDS011;1020;48.854;8.830;2022-10-18T07:57:04;5.03;;;3.93;;
2029;SDS011;1020;48.854;8.830;2022-10-18T07:59:31;4.30;;;3.90;;
2029;SDS011;1020;48.854;8.830;2022-10-18T08:01:59;5.50;;;3.30;;
2029;SDS011;1020;48.854;8.830;2022-10-18T08:04:26;4.13;;;3.83;;
2029;SDS011;1020;48.854;8.830;2022-10-18T08:06:53;3.77;;;3.47;;
2029;SDS011;1020;48.854;8.830;2022-10-18T08:09:19;4.27;;;3.80;;
2029;SDS011;1020;48.854;8.830;2022-10-18T08:11:46;5.70;;;3.50;;
2029;SDS011;1020;48.854;8.830;2022-10-18T08:14:13;8.20;;;3.50;;
2029;SDS011;1020;48.854;8.830;2022-10-18T08:16:40;4.00;;;3.70;;
2029;SDS011;1020;48.854;8.830;2022-10-18T08:19:08;5.00;;;3.90;;
2029;SDS011;1020;48.854;8.830;2022-10-18T08:21:35;4.30;;;3.87;;
2029;SDS011;1020;48.854;8.830;2022-10-18T08:24:01;3.73;;;3.50;;
2029;SDS011;1020;48.854;8.830;2022-10-18T08:26:28;3.87;;;3.57;;
2029;SDS011;1020;48.854;8.830;2022-10-18T08:28:56;4.50;;;3.70;;
2029;SDS011;1020;48.854;8.830;2022-10-18T08:31:22;6.43;;;3.77;;
2029;SDS011;1020;48.854;8.830;2022-10-18T08:33:49;3.30;;;3.10;;
2029;SDS011;1020;48.854;8.830;2022-10-18T08:36:17;2.90;;;2.70;;
2029;SDS011;1020;48.854;8.830;2022-10-18T08:38:44;4.57;;;4.10;;
2029;SDS011;1020;48.854;8.830;2022-10-18T08:41:24;4.07;;;3.70;;
2029;SDS011;1020;48.854;8.830;2022-10-18T08:44:05;6.30;;;4.17;;
2029;SDS011;1020;48.854;8.830;2022-10-18T08:46:35;11.50;;;5.40;;
2029;SDS011;1020;48.854;8.830;2022-10-18T08:49:05;5.10;;;3.87;;
2029;SDS011;1020;48.854;8.830;2022-10-18T08:51:38;4.90;;;4.27;;
2029;SDS011;1020;48.854;8.830;2022-10-18T08:54:11;4.10;;;3.03;;
2029;SDS011;1020;48.854;8.830;2022-10-18T08:56:39;3.07;;;2.80;;
2029;SDS011;1020;48.854;8.830;2022-10-18T08:59:10;5.90;;;3.63;;
2029;SDS011;1020;48.854;8.830;2022-10-18T09:01:40;6.43;;;3.60;;
2029;SDS011;1020;48.854;8.830;2022-10-18T09:04:21;3.70;;;3.40;;
2029;SDS011;1020;48.854;8.830;2022-10-18T09:07:01;3.57;;;3.23;;
2029;SDS011;1020;48.854;8.830;2022-10-18T09:09:41;6.50;;;2.97;;
2029;SDS011;1020;48.854;8.830;2022-10-18T09:12:23;4.77;;;3.13;;
2029;SDS011;1020;48.854;8.830;2022-10-18T09:15:15;7.00;;;3.10;;
2029;SDS011;1020;48.854;8.830;2022-10-18T09:17:48;4.83;;;3.43;;
2029;SDS011;1020;48.854;8.830;2022-10-18T09:20:25;5.17;;;3.33;;
2029;SDS011;1020;48.854;8.830;2022-10-18T09:22:58;5.90;;;2.90;;
2029;SDS011;1020;48.854;8.830;2022-10-18T09:25:33;6.33;;;3.73;;
2029;SDS011;1020;48.854;8.830;2022-10-18T09:28:08;3.87;;;3.03;;
2029;SDS011;1020;48.854;8.830;2022-10-18T09:30:42;6.33;;;3.23;;
2029;SDS011;1020;48.854;8.830;2022-10-18T09:33:25;3.20;;;2.90;;
2029;SDS011;1020;48.854;8.830;2022-10-18T09:35:59;4.63;;;2.60;;
2029;SDS011;1020;48.854;8.830;2022-10-18T09:38:30;3.10;;;2.90;;
2029;SDS011;1020;48.854;8.830;2022-10-18T09:41:03;3.27;;;2.50;;
2029;SDS011;1020;48.854;8.830;2022-10-18T09:43:40;3.30;;;2.40;;
2029;SDS011;1020;48.854;8.830;2022-10-18T09:46:12;4.13;;;2.50;;
2029;SDS011;1020;48.854;8.830;2022-10-18T09:48:41;3.70;;;2.70;;
2029;SDS011;1020;48.854;8.830;2022-10-18T09:51:12;2.97;;;2.27;;
2029;SDS011;1020;48.854;8.830;2022-10-18T09:53:49;8.27;;;3.10;;
2029;SDS011;1020;48.854;8.830;2022-10-18T09:56:28;4.60;;;2.97;;
2029;SDS011;1020;48.854;8.830;2022-10-18T09:58:58;2.80;;;2.60;;
2029;SDS011;1020;48.854;8.830;2022-10-18T10:01:25;5.43;;;3.83;;
2029;SDS011;1020;48.854;8.830;2022-10-18T10:03:54;5.43;;;2.80;;
2029;SDS011;1020;48.854;8.830;2022-10-18T10:06:25;4.80;;;2.73;;
2029;SDS011;1020;48.854;8.830;2022-10-18T10:08:56;8.10;;;3.37;;
2029;SDS011;1020;48.854;8.830;2022-10-18T10:11:25;4.23;;;3.07;;
2029;SDS011;1020;48.854;8.830;2022-10-18T10:14:07;4.07;;;2.97;;
2029;SDS011;1020;48.854;8.830;2022-10-18T10:16:41;2.93;;;2.43;;
2029;SDS011;1020;48.854;8.830;2022-10-18T10:19:16;4.20;;;2.77;;
2029;SDS011;1020;48.854;8.830;2022-10-18T10:21:52;3.13;;;2.67;;
2029;SDS011;1020;48.854;8.830;2022-10-18T10:24:25;4.20;;;2.90;;
2029;SDS011;1020;48.854;8.830;2022-10-18T10:26:59;2.40;;;2.20;;
2029;SDS011;1020;48.854;8.830;2022-10-18T10:32:20;4.80;;;3.07;;
2029;SDS011;1020;48.854;8.830;2022-10-18T10:34:49;3.93;;;2.70;;
2029;SDS011;1020;48.854;8.830;2022-10-18T10:37:20;2.80;;;2.43;;
2029;SDS011;1020;48.854;8.830;2022-10-18T10:40:10;5.23;;;2.10;;
2029;SDS011;1020;48.854;8.830;2022-10-18T10:42:59;2.63;;;2.30;;
2029;SDS011;1020;48.854;8.830;2022-10-18T10:45:30;4.43;;;2.53;;
2029;SDS011;1020;48.854;8.830;2022-10-18T10:48:01;9.60;;;5.53;;
2029;SDS011;1020;48.854;8.830;2022-10-18T10:50:50;3.80;;;2.90;;
2029;SDS011;1020;48.854;8.830;2022-10-18T10:56:12;3.00;;;2.60;;
2029;SDS011;1020;48.854;8.830;2022-10-18T10:58:43;2.60;;;2.40;;
2029;SDS011;1020;48.854;8.830;2022-10-18T11:01:17;3.13;;;2.23;;
2029;SDS011;1020;48.854;8.830;2022-10-18T11:03:51;4.50;;;2.30;;
2029;SDS011;1020;48.854;8.830;2022-10-18T11:09:16;2.30;;;1.87;;
2029;SDS011;1020;48.854;8.830;2022-10-18T11:12:07;2.40;;;2.20;;
2029;SDS011;1020;48.854;8.830;2022-10-18T11:14:49;1.57;;;1.47;;
2029;SDS011;1020;48.854;8.830;2022-10-18T11:17:24;2.93;;;2.43;;
2029;SDS011;1020;48.854;8.830;2022-10-18T11:20:07;2.50;;;2.30;;
2029;SDS011;1020;48.854;8.830;2022-10-18T11:22:46;2.70;;;2.20;;
2029;SDS011;1020;48.854;8.830;2022-10-18T11:25:24;2.70;;;2.30;;
2029;SDS011;1020;48.854;8.830;2022-10-18T11:28:00;4.50;;;2.70;;
2029;SDS011;1020;48.854;8.830;2022-10-18T11:30:36;2.20;;;1.87;;
2029;SDS011;1020;48.854;8.830;2022-10-18T11:33:16;2.40;;;2.17;;
2029;SDS011;1020;48.854;8.830;2022-10-18T11:35:50;1.93;;;1.73;;
2029;SDS011;1020;48.854;8.830;2022-10-18T11:38:24;2.87;;;2.63;;
2029;SDS011;1020;48.854;8.830;2022-10-18T11:41:12;3.13;;;2.67;;
2029;SDS011;1020;48.854;8.830;2022-10-18T11:43:50;6.30;;;3.10;;
2029;SDS011;1020;48.854;8.830;2022-10-18T11:46:21;2.60;;;2.40;;
2029;SDS011;1020;48.854;8.830;2022-10-18T11:49:00;2.80;;;2.60;;
2029;SDS011;1020;48.854;8.830;2022-10-18T11:51:36;3.23;;;2.90;;
2029;SDS011;1020;48.854;8.830;2022-10-18T11:54:19;3.10;;;2.90;;
2029;SDS011;1020;48.854;8.830;2022-10-18T11:56:55;3.40;;;2.63;;
2029;SDS011;1020;48.854;8.830;2022-10-18T11:59:34;3.90;;;3.47;;
2029;SDS011;1020;48.854;8.830;2022-10-18T12:02:12;2.90;;;2.33;;
2029;SDS011;1020;48.854;8.830;2022-10-18T12:04:56;7.27;;;2.83;;
2029;SDS011;1020;48.854;8.830;2022-10-18T12:07:26;4.80;;;3.00;;
2029;SDS011;1020;48.854;8.830;2022-10-18T12:09:57;4.03;;;3.30;;
2029;SDS011;1020;48.854;8.830;2022-10-18T12:12:26;8.90;;;3.13;;
2029;SDS011;1020;48.854;8.830;2022-10-18T12:14:58;6.57;;;3.60;;
2029;SDS011;1020;48.854;8.830;2022-10-18T12:17:30;3.53;;;3.23;;
2029;SDS011;1020;48.854;8.830;2022-10-18T12:20:02;4.17;;;3.17;;
2029;SDS011;1020;48.854;8.830;2022-10-18T12:22:33;4.53;;;3.40;;
2029;SDS011;1020;48.854;8.830;2022-10-18T12:25:03;4.67;;;3.47;;
2029;SDS011;1020;48.854;8.830;2022-10-18T12:27:33;3.50;;;3.07;;
2029;SDS011;1020;48.854;8.830;2022-10-18T12:30:08;3.20;;;2.63;;
2029;SDS011;1020;48.854;8.830;2022-10-18T12:32:44;6.87;;;3.17;;
2029;SDS011;1020;48.854;8.830;2022-10-18T12:35:14;3.13;;;2.90;;
2029;SDS011;1020;48.854;8.830;2022-10-18T12:37:53;3.70;;;2.53;;
2029;SDS011;1020;48.854;8.830;2022-10-18T12:40:29;2.40;;;2.20;;
2029;SDS011;1020;48.854;8.830;2022-10-18T12:43:05;2.97;;;2.67;;
2029;SDS011;1020;48.854;8.830;2022-10-18T12:45:44;2.23;;;1.80;;
2029;SDS011;1020;48.854;8.830;2022-10-18T12:48:25;3.03;;;2.17;;
2029;SDS011;1020;48.854;8.830;2022-10-18T12:50:56;2.47;;;2.27;;
2029;SDS011;1020;48.854;8.830;2022-10-18T12:53:25;2.53;;;2.33;;
2029;SDS011;1020;48.854;8.830;2022-10-18T12:55:54;2.30;;;1.97;;
2029;SDS011;1020;48.854;8.830;2022-10-18T12:58:41;2.80;;;2.07;;
2029;SDS011;1020;48.854;8.830;2022-10-18T13:01:09;2.53;;;2.33;;
2029;SDS011;1020;48.854;8.830;2022-10-18T13:12:52;2.63;;;2.20;;
2029;SDS011;1020;48.854;8.830;2022-10-18T13:15:34;2.40;;;1.93;;
2029;SDS011;1020;48.854;8.830;2022-10-18T13:18:14;2.53;;;2.33;;
2029;SDS011;1020;48.854;8.830;2022-10-18T13:20:49;3.30;;;2.43;;
2029;SDS011;1020;48.854;8.830;2022-10-18T13:23:26;5.50;;;2.03;;
2029;SDS011;1020;48.854;8.830;2022-10-18T13:26:07;2.67;;;2.47;;
2029;SDS011;1020;48.854;8.830;2022-10-18T13:28:41;2.30;;;2.20;;
2029;SDS011;1020;48.854;8.830;2022-10-18T13:31:19;2.47;;;2.27;;
2029;SDS011;1020;48.854;8.830;2022-10-18T13:33:52;2.40;;;2.20;;
2029;SDS011;1020;48.854;8.830;2022-10-18T13:36:19;1.97;;;1.83;;
2029;SDS011;1020;48.854;8.830;2022-10-18T13:39:00;3.20;;;2.20;;
2029;SDS011;1020;48.854;8.830;2022-10-18T13:41:30;3.70;;;2.10;;
2029;SDS011;1020;48.854;8.830;2022-10-18T13:44:08;4.70;;;2.27;;
2029;SDS011;1020;48.854;8.830;2022-10-18T13:50:04;3.20;;;2.30;;
2029;SDS011;1020;48.854;8.830;2022-10-18T13:58:49;2.27;;;2.17;;
2029;SDS011;1020;48.854;8.830;2022-10-18T14:01:27;4.17;;;2.30;;
2029;SDS011;1020;48.854;8.830;2022-10-18T14:04:08;4.57;;;2.37;;
2029;SDS011;1020;48.854;8.830;2022-10-18T14:06:59;2.10;;;1.80;;
2029;SDS011;1020;48.854;8.830;2022-10-18T14:09:32;2.37;;;2.17;;
2029;SDS011;1020;48.854;8.830;2022-10-18T14:12:02;2.50;;;2.40;;
2029;SDS011;1020;48.854;8.830;2022-10-18T14:14:39;2.40;;;2.20;;
2029;SDS011;1020;48.854;8.830;2022-10-18T14:17:11;2.60;;;2.10;;
2029;SDS011;1020;48.854;8.830;2022-10-18T14:19:48;3.70;;;2.57;;
2029;SDS011;1020;48.854;8.830;2022-10-18T14:22:21;4.47;;;2.60;;
2029;SDS011;1020;48.854;8.830;2022-10-18T14:24:51;2.93;;;2.63;;
2029;SDS011;1020;48.854;8.830;2022-10-18T14:27:23;3.13;;;2.83;;
2029;SDS011;1020;48.854;8.830;2022-10-18T14:30:06;3.73;;;3.43;;
2029;SDS011;1020;48.854;8.830;2022-10-18T14:32:35;2.53;;;2.33;;
2029;SDS011;1020;48.854;8.830;2022-10-18T14:35:02;2.60;;;2.40;;
2029;SDS011;1020;48.854;8.830;2022-10-18T14:37:32;2.90;;;2.70;;
2029;SDS011;1020;48.854;8.830;2022-10-18T14:40:00;2.93;;;2.60;;
2029;SDS011;1020;48.854;8.830;2022-10-18T14:42:27;2.23;;;2.10;;
2029;SDS011;1020;48.854;8.830;2022-10-18T14:44:54;4.83;;;2.70;;
2029;SDS011;1020;48.854;8.830;2022-10-18T14:47:22;2.30;;;2.10;;
2029;SDS011;1020;48.854;8.830;2022-10-18T14:49:50;2.13;;;2.03;;
2029;SDS011;1020;48.854;8.830;2022-10-18T14:52:19;3.20;;;2.30;;
2029;SDS011;1020;48.854;8.830;2022-10-18T14:54:50;2.73;;;2.47;;
2029;SDS011;1020;48.854;8.830;2022-10-18T14:57:21;2.43;;;1.80;;
2029;SDS011;1020;48.854;8.830;2022-10-18T14:59:51;2.83;;;2.60;;
2029;SDS011;1020;48.854;8.830;2022-10-18T15:02:22;3.57;;;3.10;;
2029;SDS011;1020;48.854;8.830;2022-10-18T15:04:54;2.37;;;2.17;;
2029;SDS011;1020;48.854;8.830;2022-10-18T15:07:23;2.50;;;2.30;;
2029;SDS011;1020;48.854;8.830;2022-10-18T15:09:54;2.43;;;2.23;;
2029;SDS011;1020;48.854;8.830;2022-10-18T15:12:22;2.93;;;2.50;;
2029;SDS011;1020;48.854;8.830;2022-10-18T15:14:51;2.67;;;2.10;;
2029;SDS011;1020;48.854;8.830;2022-10-18T15:17:20;3.07;;;2.30;;
2029;SDS011;1020;48.854;8.830;2022-10-18T15:19:53;2.20;;;2.10;;
2029;SDS011;1020;48.854;8.830;2022-10-18T15:22:23;3.37;;;2.50;;
2029;SDS011;1020;48.854;8.830;2022-10-18T15:25:05;2.87;;;2.63;;
2029;SDS011;1020;48.854;8.830;2022-10-18T15:27:41;2.90;;;2.70;;
2029;SDS011;1020;48.854;8.830;2022-10-18T15:30:17;4.20;;;2.40;;
2029;SDS011;1020;48.854;8.830;2022-10-18T15:32:47;2.63;;;2.43;;
2029;SDS011;1020;48.854;8.830;2022-10-18T15:35:17;2.90;;;2.30;;
2029;SDS011;1020;48.854;8.830;2022-10-18T15:37:47;2.97;;;2.73;;
2029;SDS011;1020;48.854;8.830;2022-10-18T15:40:16;3.97;;;2.90;;
2029;SDS011;1020;48.854;8.830;2022-10-18T15:42:54;2.87;;;2.67;;
2029;SDS011;1020;48.854;8.830;2022-10-18T15:45:28;2.73;;;2.53;;
2029;SDS011;1020;48.854;8.830;2022-10-18T15:47:58;4.03;;;3.10;;
2029;SDS011;1020;48.854;8.830;2022-10-18T15:50:35;2.80;;;2.60;;
2029;SDS011;1020;48.854;8.830;2022-10-18T15:56:05;2.90;;;2.70;;
2029;SDS011;1020;48.854;8.830;2022-10-18T15:58:37;2.60;;;2.40;;
2029;SDS011;1020;48.854;8.830;2022-10-18T16:01:09;2.93;;;2.70;;
2029;SDS011;1020;48.854;8.830;2022-10-18T16:03:41;3.00;;;2.80;;
2029;SDS011;1020;48.854;8.830;2022-10-18T16:06:09;2.83;;;2.63;;
2029;SDS011;1020;48.854;8.830;2022-10-18T16:08:37;3.30;;;3.10;;